Marianna, AR

7:11 AM CST on December 07, 2016 (GMT -0600)
marianna | | Change Station

Elev 210 ft 34.77 °N, 90.77 °W | Updated 6 seconds ago

Overcast
Overcast
40.9 °F
Feels Like 41 °F
N
2.0
Wind Variable Wind from ENE

Today
High -- | Low -- °F
--% Chance of Precip.
Yesterday
High -- | Low -- °F
Precip. -- in
Pressure 30.17 in
Visibility 7.0 miles
Clouds Scattered Clouds 1800 ft
Overcast 7000 ft
Windchill 41 °F
Dew Point 38 °F
Humidity 91%
Rainfall 0.00 in
Snow Depth Not available.
6:57 AM 4:51 PM
First Quarter, 52% visible
METAR KUTA 071255Z AUTO 02008KT 7SM SCT018 OVC070 05/03 A3017 RMK AO2 TSNO
Pressure 30.17 in
Visibility 7.0 miles
Clouds Scattered Clouds 1800 ft
Overcast 7000 ft
Windchill 41 °F
Dew Point 38 °F
Humidity 91%
Rainfall 0.00 in
Snow Depth Not available.
6:57 AM 4:51 PM
First Quarter, 52% visible
METAR KUTA 071255Z AUTO 02008KT 7SM SCT018 OVC070 05/03 A3017 RMK AO2 TSNO

10-Day Weather Forecast

Almanac

Astronomy

Dec. 07, 2016 Rise Set
Actual Time
Civil Twilight
Nautical Twilight
Astronomical Twilight
Moon
Length of Visible Light
Length of Day
Tomorrow will be .
, % of the Moon is Illuminated

Today's Extremes

State Highs State Lows

Community

WunderPhotos

Upload Photos

1,956,112 photos uploaded!

WunderBlog® & News

Nearby

Air Quality

  Air Quality AQ Index Pollutant
Not available.

Snow Depth

Station Depth Elevation

Earthquake Activity

City Distance Mag. Time & Date
Minimum magnitude displayed is 2.5.

Coastal Water Temperatures

Place Temperature

Stations

Nearby Weather Stations

Station Location Temp. Windchill Dew Point Humidity Wind Precip. Elev Updated Type
                   

Watches & Warnings

There are currently no watches in effect.